Time;durP1;ratioP1;P1;durP2;ratioP2;P2;SDS_P1;SDS_P2;PMS_P1;PMS_P2;Temp;Humidity;BMP_temperature;BMP_pressure;BME280_temperature;BME280_humidity;BME280_pressure;Samples;Min_cycle;Max_cycle;Signal;HPM_P1;HPM_P2
2023/03/29 00:01:32;;;;;;;;;;;18.50;41.80;;;;;;4998130;28;20027;-75
2023/03/29 00:03:59;;;;;;;;;;;18.50;41.40;;;;;;5028442;28;19913;-75
2023/03/29 00:06:24;;;;;;;;;;;18.50;41.50;;;;;;5008670;28;19964;-75
2023/03/29 00:08:52;;;;;;;;;;;18.40;41.50;;;;;;5022171;28;19952;-75
2023/03/29 00:11:18;;;;;;;;;;;18.40;42.10;;;;;;5039831;28;20016;-75
2023/03/29 00:13:43;;;;;;;;;;;18.40;41.60;;;;;;5021415;28;19955;-75
2023/03/29 00:16:09;;;;;;;;;;;18.40;41.50;;;;;;5018942;28;20286;-75
2023/03/29 00:18:34;;;;;;;;;;;18.40;41.80;;;;;;5013308;28;19914;-75
2023/03/29 00:21:00;;;;;;;;;;;18.30;41.60;;;;;;5003677;28;19962;-75
2023/03/29 00:23:25;;;;;;;;;;;18.30;41.00;;;;;;5012333;28;21885;-75
2023/03/29 00:25:54;;;;;;;;;;;18.30;41.20;;;;;;5018387;28;19921;-75
2023/03/29 00:28:19;;;;;;;;;;;18.30;41.50;;;;;;5013935;28;19924;-75
2023/03/29 00:30:45;;;;;;;;;;;18.30;41.50;;;;;;5019283;28;19918;-73
2023/03/29 00:33:10;;;;;;;;;;;18.30;41.50;;;;;;5011560;28;19914;-73
2023/03/29 00:35:37;;;;;;;;;;;18.20;41.20;;;;;;5013038;28;19936;-72
2023/03/29 00:38:04;;;;;;;;;;;18.30;41.40;;;;;;5024735;28;20373;-73
2023/03/29 00:40:30;;;;;;;;;;;18.20;41.30;;;;;;5019742;28;19913;-75
2023/03/29 00:42:57;;;;;;;;;;;18.30;41.40;;;;;;5021310;28;19920;-73
2023/03/29 00:45:24;;;;;;;;;;;18.30;41.70;;;;;;4996151;28;19921;-72
2023/03/29 00:47:57;;;;;;;;;;;18.30;41.70;;;;;;4994471;28;19921;-73
2023/03/29 00:50:32;;;;;;;;;;;18.20;41.50;;;;;;5018127;28;19922;-73
2023/03/29 00:52:58;;;;;;;;;;;18.20;41.50;;;;;;5012213;28;20294;-74
2023/03/29 00:55:24;;;;;;;;;;;18.30;41.70;;;;;;5014580;28;19914;-74
2023/03/29 00:57:49;;;;;;;;;;;18.20;41.70;;;;;;5008554;28;19960;-75
2023/03/29 01:00:17;;;;;;;;;;;18.20;41.80;;;;;;5028722;28;19921;-75
2023/03/29 01:02:42;;;;;;;;;;;18.20;42.00;;;;;;5011324;28;20012;-75
2023/03/29 01:05:09;;;;;;;;;;;18.10;42.00;;;;;;5020670;28;20017;-75
2023/03/29 01:07:37;;;;;;;;;;;18.10;42.00;;;;;;5007033;28;19921;-75
2023/03/29 01:10:12;;;;;;;;;;;18.20;42.00;;;;;;5012407;28;19929;-75
2023/03/29 01:12:39;;;;;;;;;;;18.10;42.00;;;;;;4994818;28;19917;-75
2023/03/29 01:15:05;;;;;;;;;;;18.10;42.00;;;;;;5008016;28;19953;-75
2023/03/29 01:17:31;;;;;;;;;;;18.10;41.90;;;;;;4999253;28;20007;-75
2023/03/29 01:19:58;;;;;;;;;;;18.20;42.00;;;;;;5000183;28;19952;-75
2023/03/29 01:22:37;;;;;;;;;;;18.30;43.00;;;;;;5020227;28;19917;-74
2023/03/29 01:25:03;;;;;;;;;;;18.40;43.10;;;;;;5014846;28;19940;-75
2023/03/29 01:27:31;;;;;;;;;;;18.50;43.20;;;;;;5011499;28;19913;-75
2023/03/29 01:29:59;;;;;;;;;;;18.60;43.10;;;;;;5010631;28;20359;-74
2023/03/29 01:32:34;;;;;;;;;;;18.70;42.70;;;;;;5026923;28;20454;-75
2023/03/29 01:35:10;;;;;;;;;;;18.80;42.50;;;;;;5017363;28;19917;-74
2023/03/29 01:37:36;;;;;;;;;;;18.90;42.40;;;;;;5023917;28;20338;-75
2023/03/29 01:40:04;;;;;;;;;;;18.90;42.20;;;;;;5011130;28;19924;-74
2023/03/29 01:42:35;;;;;;;;;;;18.90;41.80;;;;;;5015090;28;19981;-74
2023/03/29 01:45:19;;;;;;;;;;;18.90;41.60;;;;;;5014459;28;19924;-75
2023/03/29 01:47:54;;;;;;;;;;;18.80;41.20;;;;;;5011822;28;19928;-75
2023/03/29 01:50:19;;;;;;;;;;;18.80;41.00;;;;;;5011199;28;19914;-75
2023/03/29 01:52:47;;;;;;;;;;;18.70;41.60;;;;;;5017393;28;19943;-75
2023/03/29 01:55:19;;;;;;;;;;;18.70;41.00;;;;;;5006691;28;20374;-74
2023/03/29 01:57:44;;;;;;;;;;;18.70;40.90;;;;;;5009252;28;19917;-74
2023/03/29 02:00:13;;;;;;;;;;;18.60;41.40;;;;;;5008491;28;19920;-74
2023/03/29 02:02:39;;;;;;;;;;;18.60;41.50;;;;;;5008856;28;20044;-74
2023/03/29 02:05:05;;;;;;;;;;;18.50;41.20;;;;;;5020339;28;19958;-74
2023/03/29 02:07:31;;;;;;;;;;;18.50;41.20;;;;;;5006639;28;19948;-74
2023/03/29 02:09:57;;;;;;;;;;;18.40;41.40;;;;;;5002033;28;20408;-74
2023/03/29 02:12:22;;;;;;;;;;;18.40;41.40;;;;;;5009824;28;19926;-74
2023/03/29 02:14:48;;;;;;;;;;;18.40;41.30;;;;;;5009358;28;19921;-75
2023/03/29 02:17:17;;;;;;;;;;;18.40;41.60;;;;;;5016760;28;19913;-74
2023/03/29 02:19:44;;;;;;;;;;;18.40;41.60;;;;;;4995396;28;19914;-74
2023/03/29 02:22:10;;;;;;;;;;;18.30;41.50;;;;;;5010367;28;19966;-74
2023/03/29 02:24:36;;;;;;;;;;;18.30;41.60;;;;;;5022771;28;20020;-74
2023/03/29 02:27:01;;;;;;;;;;;18.30;41.60;;;;;;5014594;28;19922;-74
2023/03/29 02:29:27;;;;;;;;;;;18.30;41.70;;;;;;5007712;28;19929;-74
2023/03/29 02:31:53;;;;;;;;;;;18.30;41.80;;;;;;5012048;28;19961;-75
2023/03/29 02:34:28;;;;;;;;;;;18.30;41.80;;;;;;5018967;28;19913;-75
2023/03/29 02:36:57;;;;;;;;;;;18.30;41.80;;;;;;5022938;28;20387;-75
2023/03/29 02:39:24;;;;;;;;;;;18.30;41.80;;;;;;5017485;28;19914;-75
2023/03/29 02:41:50;;;;;;;;;;;18.30;41.90;;;;;;5001890;28;19937;-73
2023/03/29 02:44:19;;;;;;;;;;;18.30;41.90;;;;;;5021504;28;20401;-74
2023/03/29 02:46:44;;;;;;;;;;;18.30;42.10;;;;;;5013265;28;19917;-74
2023/03/29 02:49:10;;;;;;;;;;;18.30;41.90;;;;;;5001125;28;19922;-75
2023/03/29 02:51:36;;;;;;;;;;;18.30;41.90;;;;;;5016526;28;19952;-74
2023/03/29 02:54:01;;;;;;;;;;;18.30;41.90;;;;;;5016080;28;20012;-75
2023/03/29 02:56:27;;;;;;;;;;;18.30;41.70;;;;;;5011923;28;19952;-75
2023/03/29 02:58:53;;;;;;;;;;;18.30;41.70;;;;;;5017561;28;19939;-75
2023/03/29 03:01:19;;;;;;;;;;;18.30;41.50;;;;;;5019080;28;19959;-74
2023/03/29 03:03:45;;;;;;;;;;;18.30;41.60;;;;;;5001029;28;19918;-75
2023/03/29 03:06:11;;;;;;;;;;;18.30;41.70;;;;;;5002282;28;19918;-75
2023/03/29 03:08:36;;;;;;;;;;;18.30;41.60;;;;;;5011876;28;19921;-75
2023/03/29 03:11:02;;;;;;;;;;;18.20;41.40;;;;;;5012606;28;19994;-75
2023/03/29 03:13:27;;;;;;;;;;;18.30;41.50;;;;;;5005540;28;20367;-74
2023/03/29 03:15:53;;;;;;;;;;;18.30;41.50;;;;;;4997679;28;19914;-75
2023/03/29 03:18:19;;;;;;;;;;;18.20;41.50;;;;;;5002230;28;19928;-74
2023/03/29 03:20:53;;;;;;;;;;;18.20;41.50;;;;;;5028856;28;19966;-75
2023/03/29 03:23:18;;;;;;;;;;;18.10;41.60;;;;;;5025996;28;20008;-75
2023/03/29 03:25:44;;;;;;;;;;;18.10;41.70;;;;;;5010376;28;20067;-74
2023/03/29 03:28:09;;;;;;;;;;;18.10;41.80;;;;;;5017561;28;19925;-74
2023/03/29 03:30:35;;;;;;;;;;;18.00;41.80;;;;;;5025737;28;19914;-75
2023/03/29 03:33:00;;;;;;;;;;;18.00;41.90;;;;;;5011777;28;20008;-74
2023/03/29 03:35:26;;;;;;;;;;;18.10;42.00;;;;;;5000369;28;20386;-74
2023/03/29 03:37:51;;;;;;;;;;;18.10;41.70;;;;;;5011361;28;19943;-75
2023/03/29 03:40:16;;;;;;;;;;;18.10;41.70;;;;;;5029011;28;19914;-74
2023/03/29 03:42:42;;;;;;;;;;;18.10;41.80;;;;;;5008960;28;19917;-74
2023/03/29 03:45:08;;;;;;;;;;;18.10;41.70;;;;;;5025218;28;19917;-75
2023/03/29 03:47:36;;;;;;;;;;;18.10;41.80;;;;;;5021342;28;19917;-74
2023/03/29 03:50:01;;;;;;;;;;;18.10;41.80;;;;;;5006446;28;20440;-74
2023/03/29 03:52:27;;;;;;;;;;;18.20;41.90;;;;;;5014135;28;19913;-74
2023/03/29 03:54:52;;;;;;;;;;;18.20;41.60;;;;;;5022901;28;19920;-74
2023/03/29 03:57:17;;;;;;;;;;;18.20;41.60;;;;;;5007245;28;19939;-75
2023/03/29 03:59:43;;;;;;;;;;;18.20;41.60;;;;;;5024937;28;19918;-75
2023/03/29 04:02:09;;;;;;;;;;;18.20;41.60;;;;;;5019156;27;20298;-75
2023/03/29 04:04:34;;;;;;;;;;;18.20;41.60;;;;;;5011085;28;19917;-75
2023/03/29 04:07:03;;;;;;;;;;;18.20;41.70;;;;;;5017309;28;19916;-75
2023/03/29 04:09:30;;;;;;;;;;;18.10;41.60;;;;;;5010718;28;19921;-74
2023/03/29 04:11:55;;;;;;;;;;;18.10;41.50;;;;;;5012657;28;19922;-75
2023/03/29 04:14:21;;;;;;;;;;;18.10;41.50;;;;;;5016963;28;19910;-75
2023/03/29 04:16:46;;;;;;;;;;;18.10;41.40;;;;;;5010771;28;20286;-75
2023/03/29 04:19:12;;;;;;;;;;;18.10;41.30;;;;;;5018293;28;20070;-75
2023/03/29 04:21:38;;;;;;;;;;;18.10;41.40;;;;;;5024036;28;19970;-75
2023/03/29 04:24:03;;;;;;;;;;;18.10;41.50;;;;;;5010506;28;19913;-74
2023/03/29 04:26:29;;;;;;;;;;;18.10;41.40;;;;;;5010457;28;20019;-75
2023/03/29 04:28:54;;;;;;;;;;;18.00;41.50;;;;;;4996918;28;20012;-75
2023/03/29 04:31:20;;;;;;;;;;;18.00;41.50;;;;;;4997119;28;19970;-75
2023/03/29 04:33:46;;;;;;;;;;;18.00;41.60;;;;;;5012388;28;19920;-75
2023/03/29 04:36:12;;;;;;;;;;;18.00;41.70;;;;;;5020049;28;20011;-75
2023/03/29 04:38:40;;;;;;;;;;;18.00;41.70;;;;;;5008559;28;20347;-75
2023/03/29 04:41:09;;;;;;;;;;;18.00;41.70;;;;;;5019678;28;19948;-75
2023/03/29 04:43:35;;;;;;;;;;;18.00;41.60;;;;;;5009822;28;19918;-75
2023/03/29 04:46:00;;;;;;;;;;;18.00;41.70;;;;;;5026920;28;19918;-75
2023/03/29 04:48:27;;;;;;;;;;;18.00;41.60;;;;;;5012273;28;19920;-75
2023/03/29 04:50:53;;;;;;;;;;;18.00;41.50;;;;;;5008707;28;20290;-75
2023/03/29 04:53:19;;;;;;;;;;;18.00;41.70;;;;;;5019155;28;19913;-74
2023/03/29 04:55:47;;;;;;;;;;;18.00;41.70;;;;;;5020739;28;19928;-75
2023/03/29 04:58:13;;;;;;;;;;;18.00;41.60;;;;;;5008618;28;19920;-75
2023/03/29 05:00:38;;;;;;;;;;;18.00;41.50;;;;;;5011827;28;19913;-75
2023/03/29 05:03:04;;;;;;;;;;;18.00;41.30;;;;;;5020303;27;19917;-75
2023/03/29 05:05:30;;;;;;;;;;;17.90;41.40;;;;;;5014034;28;19933;-75
2023/03/29 05:07:55;;;;;;;;;;;17.90;41.30;;;;;;5021963;28;19913;-74
2023/03/29 05:10:22;;;;;;;;;;;18.00;41.30;;;;;;4996401;28;19914;-74
2023/03/29 05:12:52;;;;;;;;;;;17.90;41.30;;;;;;5000139;28;19917;-75
2023/03/29 05:15:21;;;;;;;;;;;17.90;41.20;;;;;;5005743;28;19920;-74
2023/03/29 05:17:47;;;;;;;;;;;17.90;41.20;;;;;;5009723;28;19909;-75
2023/03/29 05:20:13;;;;;;;;;;;17.90;41.10;;;;;;5003288;28;20294;-74
2023/03/29 05:22:39;;;;;;;;;;;17.90;41.30;;;;;;5013424;28;20000;-74
2023/03/29 05:25:04;;;;;;;;;;;17.90;41.30;;;;;;4993494;28;19931;-75
2023/03/29 05:27:30;;;;;;;;;;;17.90;41.30;;;;;;5014559;28;19925;-74
2023/03/29 05:29:55;;;;;;;;;;;17.80;41.30;;;;;;5010412;28;19913;-74
2023/03/29 05:32:21;;;;;;;;;;;17.80;41.50;;;;;;5006463;28;19913;-74
2023/03/29 05:34:46;;;;;;;;;;;17.80;41.50;;;;;;5019407;28;19935;-74
2023/03/29 05:37:12;;;;;;;;;;;17.80;41.30;;;;;;5013317;28;20375;-74
2023/03/29 05:39:37;;;;;;;;;;;17.80;41.30;;;;;;5013501;28;19937;-74
2023/03/29 05:42:03;;;;;;;;;;;17.80;41.40;;;;;;5025457;28;19953;-74
2023/03/29 05:44:28;;;;;;;;;;;17.80;41.40;;;;;;5013561;28;20490;-74
2023/03/29 05:46:56;;;;;;;;;;;17.80;41.50;;;;;;4999537;28;19921;-74
2023/03/29 05:49:21;;;;;;;;;;;17.80;41.60;;;;;;5027635;28;19914;-74
2023/03/29 05:51:47;;;;;;;;;;;17.80;41.50;;;;;;5011622;28;19921;-74
2023/03/29 05:54:12;;;;;;;;;;;17.80;41.30;;;;;;5006582;28;19925;-75
2023/03/29 05:56:38;;;;;;;;;;;17.80;41.30;;;;;;5018489;28;19967;-74
2023/03/29 05:59:03;;;;;;;;;;;17.90;41.20;;;;;;5015219;28;19920;-75
2023/03/29 06:01:29;;;;;;;;;;;17.90;41.60;;;;;;5015251;28;20062;-75
2023/03/29 06:03:56;;;;;;;;;;;17.90;41.10;;;;;;5009442;28;19940;-75
2023/03/29 06:06:21;;;;;;;;;;;17.90;41.20;;;;;;5014414;28;19942;-74
2023/03/29 06:08:47;;;;;;;;;;;17.80;41.00;;;;;;5016790;28;19917;-74
2023/03/29 06:11:12;;;;;;;;;;;17.80;41.20;;;;;;5011928;28;20021;-75
2023/03/29 06:13:38;;;;;;;;;;;17.80;41.20;;;;;;5008228;28;20480;-75
2023/03/29 06:16:04;;;;;;;;;;;17.80;41.20;;;;;;5023777;28;19913;-75
2023/03/29 06:18:31;;;;;;;;;;;17.80;41.30;;;;;;4998788;28;20495;-74
2023/03/29 06:20:56;;;;;;;;;;;17.80;41.30;;;;;;5010709;28;20390;-75
2023/03/29 06:23:22;;;;;;;;;;;17.80;41.20;;;;;;5007608;28;20008;-75
2023/03/29 06:25:47;;;;;;;;;;;17.80;41.20;;;;;;5015206;28;19939;-76
2023/03/29 06:28:13;;;;;;;;;;;17.80;41.10;;;;;;5026390;28;19909;-75
2023/03/29 06:30:38;;;;;;;;;;;17.80;41.50;;;;;;5017003;28;19917;-75
2023/03/29 06:33:07;;;;;;;;;;;17.70;41.50;;;;;;5017473;28;20548;-75
2023/03/29 06:35:33;;;;;;;;;;;17.80;41.50;;;;;;5015801;28;19917;-74
2023/03/29 06:37:59;;;;;;;;;;;17.80;41.40;;;;;;4999220;28;20590;-75
2023/03/29 06:40:26;;;;;;;;;;;17.80;41.60;;;;;;5009135;28;19966;-74
2023/03/29 06:42:56;;;;;;;;;;;17.80;41.60;;;;;;5002153;28;20367;-74
2023/03/29 06:45:25;;;;;;;;;;;17.80;41.70;;;;;;5018510;28;19921;-74
2023/03/29 06:47:50;;;;;;;;;;;17.80;41.80;;;;;;5003305;28;20409;-75
2023/03/29 06:50:16;;;;;;;;;;;17.80;41.90;;;;;;5022414;28;19921;-74
2023/03/29 06:52:42;;;;;;;;;;;17.80;42.00;;;;;;5001389;28;19922;-74
2023/03/29 06:55:10;;;;;;;;;;;17.90;42.00;;;;;;5013298;28;19928;-75
2023/03/29 06:57:36;;;;;;;;;;;17.80;41.90;;;;;;5016811;28;19957;-74
2023/03/29 07:00:13;;;;;;;;;;;17.90;41.90;;;;;;5021241;28;19960;-75
2023/03/29 07:02:39;;;;;;;;;;;17.90;41.90;;;;;;5025783;27;20355;-76
2023/03/29 07:05:10;;;;;;;;;;;17.90;41.80;;;;;;5028161;28;19940;-76
2023/03/29 07:07:52;;;;;;;;;;;18.00;41.90;;;;;;5018260;28;19914;-75
2023/03/29 07:10:18;;;;;;;;;;;18.00;42.00;;;;;;5012136;28;19938;-76
2023/03/29 07:12:46;;;;;;;;;;;18.00;41.80;;;;;;5018218;28;19918;-76
2023/03/29 07:15:12;;;;;;;;;;;18.10;41.90;;;;;;5008618;28;19920;-76
2023/03/29 07:17:37;;;;;;;;;;;18.10;41.90;;;;;;5008024;28;20371;-76
2023/03/29 07:20:07;;;;;;;;;;;18.20;42.20;;;;;;5014273;28;19912;-76
2023/03/29 07:22:33;;;;;;;;;;;18.30;42.00;;;;;;5002024;28;20015;-76
2023/03/29 07:24:59;;;;;;;;;;;18.30;41.50;;;;;;5020760;28;20008;-76
2023/03/29 07:27:25;;;;;;;;;;;18.30;42.00;;;;;;5009802;28;20964;-76
2023/03/29 07:29:51;;;;;;;;;;;18.30;42.30;;;;;;5044383;28;19913;-78
2023/03/29 07:32:16;;;;;;;;;;;18.40;42.40;;;;;;4998242;28;20547;-78
2023/03/29 07:34:42;;;;;;;;;;;19.10;41.90;;;;;;5013844;28;19917;-77
2023/03/29 07:37:08;;;;;;;;;;;20.00;40.20;;;;;;5001695;28;19925;-77
2023/03/29 07:39:34;;;;;;;;;;;20.80;38.50;;;;;;5010578;28;20394;-77
2023/03/29 07:41:59;;;;;;;;;;;21.60;37.30;;;;;;5008997;28;19929;-78
2023/03/29 07:44:28;;;;;;;;;;;22.10;36.50;;;;;;5000818;28;20585;-77
2023/03/29 07:46:54;;;;;;;;;;;22.50;35.90;;;;;;5006597;28;19947;-77
2023/03/29 07:49:19;;;;;;;;;;;22.70;35.70;;;;;;5002223;28;19917;-77
2023/03/29 07:51:44;;;;;;;;;;;22.90;35.30;;;;;;5005686;28;19948;-76
2023/03/29 07:54:10;;;;;;;;;;;23.10;35.10;;;;;;4999614;28;20025;-75
2023/03/29 07:56:36;;;;;;;;;;;23.20;34.90;;;;;;5005265;28;19913;-75
2023/03/29 07:59:01;;;;;;;;;;;23.20;34.60;;;;;;5009797;28;19913;-76
2023/03/29 08:01:26;;;;;;;;;;;23.20;34.80;;;;;;5014576;28;19924;-76
2023/03/29 08:03:52;;;;;;;;;;;23.20;34.90;;;;;;5017592;28;19995;-74
2023/03/29 08:06:17;;;;;;;;;;;23.30;34.80;;;;;;5004477;28;19917;-76
2023/03/29 08:08:43;;;;;;;;;;;23.40;34.70;;;;;;5014235;28;20430;-76
2023/03/29 08:11:09;;;;;;;;;;;23.40;34.60;;;;;;5010189;28;20440;-76
2023/03/29 08:13:34;;;;;;;;;;;23.60;34.70;;;;;;5017802;28;19921;-76
2023/03/29 08:16:00;;;;;;;;;;;23.60;34.50;;;;;;5020090;28;19924;-76
2023/03/29 08:18:26;;;;;;;;;;;23.60;34.30;;;;;;5018695;28;20517;-76
2023/03/29 08:20:51;;;;;;;;;;;23.70;34.20;;;;;;5010454;28;20000;-76
2023/03/29 08:23:17;;;;;;;;;;;23.80;34.20;;;;;;5011312;28;19931;-76
2023/03/29 08:25:43;;;;;;;;;;;23.80;34.20;;;;;;5015800;28;19925;-77
2023/03/29 08:28:09;;;;;;;;;;;23.80;34.20;;;;;;5003208;28;19917;-76
2023/03/29 08:30:35;;;;;;;;;;;23.80;34.30;;;;;;5017226;28;19924;-76
2023/03/29 08:33:00;;;;;;;;;;;23.80;34.40;;;;;;5009475;28;19927;-75
2023/03/29 08:35:26;;;;;;;;;;;23.80;34.30;;;;;;5014198;28;20297;-76
2023/03/29 08:37:52;;;;;;;;;;;23.80;34.30;;;;;;5005967;28;19913;-77
2023/03/29 08:40:23;;;;;;;;;;;23.90;34.30;;;;;;5018818;28;19913;-77
2023/03/29 08:43:08;;;;;;;;;;;23.90;34.30;;;;;;5009889;28;19914;-76
2023/03/29 08:45:52;;;;;;;;;;;23.90;34.30;;;;;;5016286;28;19927;-76
2023/03/29 08:48:24;;;;;;;;;;;23.90;34.40;;;;;;5039658;28;19914;-76
2023/03/29 08:50:51;;;;;;;;;;;23.90;34.40;;;;;;5017079;28;19917;-76
2023/03/29 08:53:25;;;;;;;;;;;23.90;34.40;;;;;;5010071;28;19924;-76
2023/03/29 08:55:50;;;;;;;;;;;24.00;34.40;;;;;;5009536;28;20371;-77
2023/03/29 08:58:19;;;;;;;;;;;24.00;34.20;;;;;;5016679;28;19917;-77
2023/03/29 09:00:49;;;;;;;;;;;24.10;34.20;;;;;;5007089;28;20305;-76
2023/03/29 09:03:20;;;;;;;;;;;24.10;34.30;;;;;;5003910;28;20195;-76
2023/03/29 09:05:47;;;;;;;;;;;24.00;34.20;;;;;;5017616;28;19952;-76
2023/03/29 09:08:16;;;;;;;;;;;24.10;34.30;;;;;;5002875;28;20423;-77
2023/03/29 09:10:44;;;;;;;;;;;24.10;34.20;;;;;;5019515;28;19913;-77
2023/03/29 09:13:10;;;;;;;;;;;24.30;34.20;;;;;;5022958;28;19917;-76
2023/03/29 09:15:59;;;;;;;;;;;24.30;34.20;;;;;;5024654;28;19917;-76
2023/03/29 09:18:24;;;;;;;;;;;24.30;34.10;;;;;;5007673;28;19928;-76
2023/03/29 09:20:55;;;;;;;;;;;24.50;34.00;;;;;;5014307;28;19932;-76
2023/03/29 09:23:25;;;;;;;;;;;24.50;34.00;;;;;;5001273;28;19939;-76
2023/03/29 09:25:54;;;;;;;;;;;24.50;34.00;;;;;;5001127;28;19922;-76
2023/03/29 09:28:33;;;;;;;;;;;24.60;34.00;;;;;;5023302;28;19918;-77
2023/03/29 09:31:12;;;;;;;;;;;24.60;34.00;;;;;;5016155;28;19913;-77
2023/03/29 09:33:46;;;;;;;;;;;24.70;34.00;;;;;;5013136;28;19928;-76
2023/03/29 09:36:24;;;;;;;;;;;24.70;34.70;;;;;;5026326;28;19920;-76
2023/03/29 09:38:53;;;;;;;;;;;24.70;34.00;;;;;;5014213;28;20437;-76
2023/03/29 09:41:20;;;;;;;;;;;24.70;34.00;;;;;;5008696;28;19924;-76
2023/03/29 09:43:46;;;;;;;;;;;24.80;34.10;;;;;;5018523;28;20021;-76
2023/03/29 09:46:17;;;;;;;;;;;24.90;34.00;;;;;;5006934;28;20027;-77
2023/03/29 09:48:43;;;;;;;;;;;24.90;34.10;;;;;;5018968;28;20298;-75
2023/03/29 09:51:08;;;;;;;;;;;24.90;34.00;;;;;;5008190;28;19917;-77
2023/03/29 09:53:34;;;;;;;;;;;24.90;34.00;;;;;;5018402;28;19917;-76
2023/03/29 09:55:59;;;;;;;;;;;24.90;33.90;;;;;;5009182;28;19929;-77
2023/03/29 09:58:26;;;;;;;;;;;24.90;34.10;;;;;;5022511;28;20009;-76
2023/03/29 10:00:52;;;;;;;;;;;24.90;34.00;;;;;;5003188;28;20008;-77
2023/03/29 10:03:21;;;;;;;;;;;24.90;34.10;;;;;;5020297;27;20052;-76
2023/03/29 10:05:47;;;;;;;;;;;25.00;34.10;;;;;;5005104;28;19917;-75
2023/03/29 10:08:33;;;;;;;;;;;25.00;34.10;;;;;;5018039;28;19913;-75
2023/03/29 10:10:59;;;;;;;;;;;25.10;34.10;;;;;;5016620;28;20401;-76
2023/03/29 10:13:31;;;;;;;;;;;25.00;34.00;;;;;;5002757;28;19917;-76
2023/03/29 10:16:04;;;;;;;;;;;25.10;34.10;;;;;;5013049;28;19913;-76
2023/03/29 10:18:30;;;;;;;;;;;25.10;34.10;;;;;;5001673;28;19953;-77
2023/03/29 10:20:59;;;;;;;;;;;25.10;34.10;;;;;;5002886;28;19914;-76
2023/03/29 10:23:28;;;;;;;;;;;25.10;34.10;;;;;;5018342;28;19962;-76
2023/03/29 10:25:54;;;;;;;;;;;25.10;34.10;;;;;;5008786;28;19929;-77
2023/03/29 10:28:21;;;;;;;;;;;25.10;34.30;;;;;;5017771;28;19917;-77
2023/03/29 10:30:51;;;;;;;;;;;25.10;34.10;;;;;;5018007;28;19964;-75
2023/03/29 10:33:19;;;;;;;;;;;25.20;34.00;;;;;;5001172;28;19917;-75
2023/03/29 10:35:44;;;;;;;;;;;25.20;33.90;;;;;;5011981;28;19928;-75
2023/03/29 10:38:13;;;;;;;;;;;25.20;34.10;;;;;;4999083;28;19914;-75
2023/03/29 10:40:51;;;;;;;;;;;25.20;34.30;;;;;;5019227;28;19917;-75
2023/03/29 10:43:21;;;;;;;;;;;25.10;34.50;;;;;;5013067;28;20336;-75
2023/03/29 10:45:47;;;;;;;;;;;25.10;34.50;;;;;;4995747;28;19966;-75
2023/03/29 10:48:13;;;;;;;;;;;25.10;34.70;;;;;;5001220;28;20414;-75
2023/03/29 10:50:39;;;;;;;;;;;25.10;34.70;;;;;;5007738;28;19917;-75
2023/03/29 10:53:05;;;;;;;;;;;25.10;34.80;;;;;;5033240;28;20003;-75
2023/03/29 10:55:35;;;;;;;;;;;25.10;34.80;;;;;;5013243;28;19913;-75
2023/03/29 10:58:04;;;;;;;;;;;25.10;34.90;;;;;;5004587;28;20267;-75
2023/03/29 11:00:30;;;;;;;;;;;25.00;35.10;;;;;;5019350;28;20418;-75
2023/03/29 11:03:19;;;;;;;;;;;25.00;35.00;;;;;;5030984;28;19961;-75
2023/03/29 11:05:46;;;;;;;;;;;25.10;35.20;;;;;;5005019;28;19932;-75
2023/03/29 11:08:13;;;;;;;;;;;25.00;35.00;;;;;;5013247;28;19914;-75
2023/03/29 11:10:57;;;;;;;;;;;25.10;35.10;;;;;;5011101;28;19921;-74
2023/03/29 11:13:30;;;;;;;;;;;25.10;35.10;;;;;;4995329;28;19921;-74
2023/03/29 11:16:15;;;;;;;;;;;25.10;35.10;;;;;;4997187;28;20005;-75
2023/03/29 11:18:44;;;;;;;;;;;25.20;34.90;;;;;;5017289;28;19975;-75
2023/03/29 11:21:09;;;;;;;;;;;25.20;35.00;;;;;;5013684;28;19917;-75
2023/03/29 11:23:48;;;;;;;;;;;25.20;35.00;;;;;;5017727;28;20344;-74
2023/03/29 11:26:25;;;;;;;;;;;25.30;35.00;;;;;;5021953;28;19955;-74
2023/03/29 11:28:52;;;;;;;;;;;25.30;35.00;;;;;;5006491;28;19924;-74
2023/03/29 11:31:23;;;;;;;;;;;25.30;35.00;;;;;;4998788;28;19917;-74
2023/03/29 11:33:52;;;;;;;;;;;25.40;34.90;;;;;;5004808;28;20032;-74
2023/03/29 11:36:26;;;;;;;;;;;25.40;35.10;;;;;;5020767;28;19962;-74
2023/03/29 11:38:52;;;;;;;;;;;25.40;35.00;;;;;;5011527;28;20080;-74
2023/03/29 11:41:18;;;;;;;;;;;25.40;35.00;;;;;;5018597;28;20016;-75
2023/03/29 11:43:43;;;;;;;;;;;25.50;35.10;;;;;;5030523;28;20270;-75
2023/03/29 11:46:17;;;;;;;;;;;25.40;35.10;;;;;;5012121;28;19921;-74
2023/03/29 11:48:47;;;;;;;;;;;25.50;35.00;;;;;;5020014;28;20000;-74
2023/03/29 11:51:15;;;;;;;;;;;25.50;34.90;;;;;;5004776;28;19917;-74
2023/03/29 11:54:00;;;;;;;;;;;25.50;35.00;;;;;;5088003;27;19917;-75
2023/03/29 11:56:28;;;;;;;;;;;25.60;35.10;;;;;;5003766;28;19928;-75
2023/03/29 11:58:56;;;;;;;;;;;25.60;35.10;;;;;;5000569;28;19917;-75
2023/03/29 12:01:27;;;;;;;;;;;25.60;35.20;;;;;;5011009;28;20012;-75
2023/03/29 12:03:54;;;;;;;;;;;25.60;35.10;;;;;;5026752;28;19917;-75
2023/03/29 12:06:20;;;;;;;;;;;25.60;35.10;;;;;;5013916;28;19917;-76
2023/03/29 12:09:12;;;;;;;;;;;25.60;35.10;;;;;;5012976;28;19921;-75
2023/03/29 12:11:38;;;;;;;;;;;25.70;35.10;;;;;;4988659;28;19921;-75
2023/03/29 12:14:05;;;;;;;;;;;25.70;35.10;;;;;;5007269;28;19917;-75
2023/03/29 12:16:33;;;;;;;;;;;25.80;35.10;;;;;;5004385;28;19920;-75
2023/03/29 12:19:01;;;;;;;;;;;25.80;35.00;;;;;;5004992;28;19963;-75
2023/03/29 12:21:27;;;;;;;;;;;25.80;35.10;;;;;;5014677;28;19927;-74
2023/03/29 12:23:52;;;;;;;;;;;25.80;35.00;;;;;;5013853;28;19921;-74
2023/03/29 12:26:36;;;;;;;;;;;25.90;35.10;;;;;;5012580;28;20382;-74
2023/03/29 12:29:06;;;;;;;;;;;25.80;35.00;;;;;;5022673;28;20419;-74
2023/03/29 12:31:49;;;;;;;;;;;25.90;35.00;;;;;;5015010;28;19989;-75
2023/03/29 12:34:25;;;;;;;;;;;25.90;35.10;;;;;;5016314;28;19924;-75
2023/03/29 12:37:06;;;;;;;;;;;25.90;35.10;;;;;;5008620;28;19936;-75
2023/03/29 12:39:32;;;;;;;;;;;25.90;35.10;;;;;;5020342;28;19917;-76
2023/03/29 12:42:14;;;;;;;;;;;25.90;35.20;;;;;;5005905;28;19913;-75
2023/03/29 12:44:40;;;;;;;;;;;25.90;35.30;;;;;;5021151;28;19913;-76
2023/03/29 12:47:08;;;;;;;;;;;25.90;35.30;;;;;;5016193;28;19917;-76
2023/03/29 12:49:34;;;;;;;;;;;25.90;35.30;;;;;;5009647;28;19921;-76
2023/03/29 12:52:01;;;;;;;;;;;25.90;35.30;;;;;;4999838;28;20114;-75
2023/03/29 12:54:27;;;;;;;;;;;25.90;35.30;;;;;;5005025;28;20317;-76
2023/03/29 12:57:00;;;;;;;;;;;26.00;35.40;;;;;;5004930;28;19940;-76
2023/03/29 12:59:55;;;;;;;;;;;26.00;35.30;;;;;;5012257;28;19929;-76
2023/03/29 13:02:20;;;;;;;;;;;26.00;35.20;;;;;;5007150;28;19927;-75
2023/03/29 13:04:55;;;;;;;;;;;26.00;35.30;;;;;;5012359;28;19913;-75
2023/03/29 13:07:21;;;;;;;;;;;25.90;35.60;;;;;;4998931;28;19914;-75
2023/03/29 13:09:50;;;;;;;;;;;25.60;35.80;;;;;;5012916;28;19913;-75
2023/03/29 13:12:34;;;;;;;;;;;25.40;36.20;;;;;;5010231;28;21150;-75
2023/03/29 13:15:00;;;;;;;;;;;25.30;36.70;;;;;;5012119;28;20354;-75
2023/03/29 13:17:26;;;;;;;;;;;25.00;37.30;;;;;;5014848;28;20052;-75
2023/03/29 13:20:03;;;;;;;;;;;24.80;37.60;;;;;;5007505;28;20341;-76
2023/03/29 13:22:41;;;;;;;;;;;24.50;37.90;;;;;;5010735;28;19975;-75
2023/03/29 13:25:16;;;;;;;;;;;24.30;38.50;;;;;;5012369;28;19998;-75
2023/03/29 13:28:00;;;;;;;;;;;24.10;39.00;;;;;;5006470;28;19913;-75
2023/03/29 13:30:42;;;;;;;;;;;23.90;39.30;;;;;;5020718;28;19913;-76
2023/03/29 13:33:33;;;;;;;;;;;23.80;39.30;;;;;;5003489;28;19921;-75
2023/03/29 13:36:02;;;;;;;;;;;23.60;39.70;;;;;;5008719;28;19914;-75
2023/03/29 13:38:30;;;;;;;;;;;23.40;40.20;;;;;;5004666;28;19913;-75
2023/03/29 13:40:57;;;;;;;;;;;23.30;40.50;;;;;;5021606;28;19913;-75
2023/03/29 13:43:30;;;;;;;;;;;23.10;40.50;;;;;;5018650;28;20174;-75
2023/03/29 13:45:55;;;;;;;;;;;23.10;41.00;;;;;;5016064;28;19917;-74
2023/03/29 13:48:26;;;;;;;;;;;23.00;41.10;;;;;;5019278;28;19920;-75
2023/03/29 13:50:54;;;;;;;;;;;22.80;41.00;;;;;;5011224;28;19909;-75
2023/03/29 13:53:39;;;;;;;;;;;22.80;41.00;;;;;;5017917;28;19920;-75
2023/03/29 13:56:04;;;;;;;;;;;22.70;41.20;;;;;;5027566;28;20683;-74
2023/03/29 13:58:50;;;;;;;;;;;22.60;41.50;;;;;;5004745;28;19917;-76
2023/03/29 14:01:16;;;;;;;;;;;22.60;42.50;;;;;;5060245;28;19921;-75
2023/03/29 14:03:43;;;;;;;;;;;22.50;41.90;;;;;;5009765;28;19917;-74
2023/03/29 14:06:09;;;;;;;;;;;22.50;41.90;;;;;;5005302;28;19925;-75
2023/03/29 14:08:38;;;;;;;;;;;22.40;42.40;;;;;;5019052;28;19918;-75
2023/03/29 14:11:04;;;;;;;;;;;22.40;42.30;;;;;;5011094;28;19921;-75
2023/03/29 14:13:29;;;;;;;;;;;22.30;41.80;;;;;;5010702;28;20039;-75
2023/03/29 14:16:03;;;;;;;;;;;22.30;42.50;;;;;;5006368;28;20015;-75
2023/03/29 14:18:32;;;;;;;;;;;22.30;42.70;;;;;;5012554;28;19913;-75
2023/03/29 14:20:59;;;;;;;;;;;22.30;42.50;;;;;;5016675;28;22932;-75
2023/03/29 14:23:29;;;;;;;;;;;22.50;42.50;;;;;;5020677;28;20418;-75